Time;durP1;ratioP1;P1;durP2;ratioP2;P2;SDS_P1;SDS_P2;PMS_P1;PMS_P2;Temp;Humidity;BMP_temperature;BMP_pressure;BME280_temperature;BME280_humidity;BME280_pressure;Samples;Min_cycle;Max_cycle;Signal;HPM_P1;HPM_P2
2021/06/24 00:01:47;;;;;;;37.47;21.70;;;589.60;2432.00;;;;;;5071609;28;20029;-78
2021/06/24 00:04:13;;;;;;;30.85;21.80;;;589.60;2432.00;;;;;;5071796;28;20025;-72
2021/06/24 00:06:39;;;;;;;32.00;21.90;;;589.50;2432.00;;;;;;5071539;28;20028;-75
2021/06/24 00:09:06;;;;;;;34.00;21.55;;;589.50;2432.00;;;;;;5071615;28;20028;-75
2021/06/24 00:11:32;;;;;;;30.40;22.20;;;589.40;2432.00;;;;;;5071727;28;20072;-81
2021/06/24 00:13:58;;;;;;;38.45;26.20;;;589.40;2432.00;;;;;;5074646;28;20044;-73
2021/06/24 00:16:24;;;;;;;49.58;34.38;;;589.50;2432.00;;;;;;5075526;28;20016;-73
2021/06/24 00:18:50;;;;;;;60.28;41.67;;;589.50;2432.00;;;;;;5075280;28;20029;-77
2021/06/24 00:21:16;;;;;;;50.22;36.13;;;589.50;2432.00;;;;;;5075370;28;20504;-76
2021/06/24 00:23:42;;;;;;;45.75;32.63;;;589.50;2432.00;;;;;;5075412;28;20020;-72
2021/06/24 00:26:08;;;;;;;45.80;32.90;;;589.50;2432.00;;;;;;5075269;28;20078;-74
2021/06/24 00:28:34;;;;;;;39.67;27.90;;;589.50;2432.00;;;;;;5075130;28;20501;-76
2021/06/24 00:31:00;;;;;;;39.88;26.17;;;589.50;2432.00;;;;;;5075407;28;20020;-74
2021/06/24 00:33:26;;;;;;;37.65;22.30;;;589.40;2432.00;;;;;;5075247;28;20420;-78
2021/06/24 00:35:52;;;;;;;34.25;21.85;;;589.30;2432.00;;;;;;5075218;28;20390;-71
2021/06/24 00:38:19;;;;;;;34.00;23.35;;;589.20;2432.00;;;;;;5075046;28;20027;-72
2021/06/24 00:40:45;;;;;;;38.42;25.70;;;589.20;2432.00;;;;;;5075250;28;20074;-82
2021/06/24 00:43:13;;;;;;;33.28;23.98;;;589.10;2432.00;;;;;;5074749;28;20020;-70
2021/06/24 00:45:40;;;;;;;41.03;25.63;;;589.10;2432.00;;;;;;5074831;28;20124;-75
2021/06/24 00:48:07;;;;;;;35.42;24.45;;;589.00;2432.00;;;;;;5074791;28;20476;-77
2021/06/24 00:50:34;;;;;;;35.67;23.88;;;589.00;2432.00;;;;;;5074984;28;20048;-72
2021/06/24 00:53:00;;;;;;;38.55;23.45;;;589.00;2432.00;;;;;;5074823;28;20032;-75
2021/06/24 00:55:44;;;;;;;31.17;23.50;;;589.00;2432.00;;;;;;5074813;28;20092;-75
2021/06/24 00:58:16;;;;;;;38.83;25.73;;;589.00;2432.00;;;;;;5062230;28;20509;-72
2021/06/24 01:00:44;;;;;;;35.30;24.25;;;589.00;2432.00;;;;;;5074503;28;20070;-77
2021/06/24 01:03:11;;;;;;;32.70;24.33;;;588.90;2432.00;;;;;;5074873;28;20024;-73
2021/06/24 01:05:38;;;;;;;37.60;25.25;;;564.10;2432.00;;;;;;5074551;28;20024;-73
2021/06/24 01:08:08;;;;;;;32.53;24.92;;;564.10;2432.00;;;;;;5074726;28;20035;-74
2021/06/24 01:10:34;;;;;;;32.35;23.70;;;564.00;2432.00;;;;;;5074449;28;20037;-76
2021/06/24 01:13:01;;;;;;;39.60;25.02;;;564.00;2432.00;;;;;;5056669;28;20490;-72
2021/06/24 01:15:27;;;;;;;35.40;26.50;;;563.90;2432.00;;;;;;5074696;28;20120;-71
2021/06/24 01:17:55;;;;;;;37.05;26.30;;;563.70;2432.00;;;;;;5074524;28;20445;-77
2021/06/24 01:20:26;;;;;;;39.17;26.85;;;563.60;2432.00;;;;;;5074457;28;20043;-71
2021/06/24 01:22:52;;;;;;;38.42;26.98;;;563.50;2432.00;;;;;;5074449;28;20013;-74
2021/06/24 01:25:19;;;;;;;35.88;25.92;;;563.30;2432.00;;;;;;5073458;28;20500;-75
2021/06/24 01:27:45;;;;;;;35.67;27.05;;;563.40;2432.00;;;;;;5074050;28;20024;-71
2021/06/24 01:30:11;;;;;;;37.92;27.52;;;563.30;2432.00;;;;;;5074329;28;20027;-75
2021/06/24 01:32:37;;;;;;;32.47;25.83;;;563.20;2432.00;;;;;;5074085;28;20031;-77
2021/06/24 01:35:04;;;;;;;39.80;27.90;;;563.30;2432.00;;;;;;5074405;28;20016;-81
2021/06/24 01:37:30;;;;;;;45.50;30.33;;;563.30;2432.00;;;;;;5056029;28;20368;-72
2021/06/24 01:39:56;;;;;;;39.58;29.88;;;563.20;2432.00;;;;;;5074122;28;20016;-75
2021/06/24 01:42:21;;;;;;;38.08;29.38;;;538.50;2406.40;;;;;;5073873;28;20173;-76
2021/06/24 01:44:47;;;;;;;40.67;29.65;;;563.20;2432.00;;;;;;5073859;28;20031;-73
2021/06/24 01:47:13;;;;;;;42.22;28.02;;;563.30;2432.00;;;;;;5073748;28;20028;-72
2021/06/24 01:49:39;;;;;;;39.47;28.33;;;563.40;2432.00;;;;;;5072200;28;20395;-75
2021/06/24 01:52:05;;;;;;;37.10;28.17;;;563.50;2432.00;;;;;;5073691;28;20017;-75
2021/06/24 01:54:31;;;;;;;39.28;26.75;;;563.60;2432.00;;;;;;5073781;28;20426;-73
2021/06/24 01:56:57;;;;;;;36.42;25.85;;;563.60;2432.00;;;;;;5073322;28;20020;-73
2021/06/24 01:59:35;;;;;;;36.55;26.88;;;563.60;2432.00;;;;;;5073653;28;20029;-72
2021/06/24 02:02:01;;;;;;;39.90;26.52;;;563.60;2432.00;;;;;;5073309;28;20031;-72
2021/06/24 02:04:28;;;;;;;36.20;26.17;;;563.70;2432.00;;;;;;5073394;28;20020;-72
2021/06/24 02:06:53;;;;;;;41.47;25.75;;;563.70;2432.00;;;;;;5073260;28;20056;-73
2021/06/24 02:09:19;;;;;;;37.00;24.90;;;563.70;2432.00;;;;;;5073457;28;20052;-72
2021/06/24 02:11:45;;;;;;;32.85;25.60;;;563.70;2432.00;;;;;;5073099;28;20052;-72
2021/06/24 02:14:11;;;;;;;38.65;24.63;;;563.70;2432.00;;;;;;5073281;28;20013;-72
2021/06/24 02:16:36;;;;;;;34.60;24.27;;;563.60;2432.00;;;;;;5073426;28;20100;-72
2021/06/24 02:19:03;;;;;;;37.38;24.08;;;563.60;2432.00;;;;;;5073119;28;20013;-73
2021/06/24 02:21:28;;;;;;;34.03;24.65;;;563.60;2432.00;;;;;;5073269;28;20097;-72
2021/06/24 02:23:54;;;;;;;33.80;23.35;;;563.60;2432.00;;;;;;5072789;28;20028;-72
2021/06/24 02:26:20;;;;;;;32.85;22.33;;;563.60;2432.00;;;;;;5073155;28;20073;-72
2021/06/24 02:28:45;;;;;;;36.50;23.08;;;563.60;2432.00;;;;;;5072867;28;20024;-72
2021/06/24 02:31:11;;;;;;;34.38;21.75;;;563.60;2432.00;;;;;;5073085;28;20032;-72
2021/06/24 02:33:38;;;;;;;31.55;21.60;;;563.60;2432.00;;;;;;5073269;28;20051;-72
2021/06/24 02:36:04;;;;;;;29.67;20.40;;;563.60;2432.00;;;;;;5072790;28;20494;-74
2021/06/24 02:38:30;;;;;;;31.50;20.98;;;563.60;2432.00;;;;;;5072951;28;20569;-71
2021/06/24 02:40:56;;;;;;;32.08;21.23;;;563.60;2432.00;;;;;;5072774;28;20025;-71
2021/06/24 02:43:22;;;;;;;28.50;19.92;;;563.70;2432.00;;;;;;5073058;28;20379;-73
2021/06/24 02:45:47;;;;;;;28.58;20.25;;;563.70;2432.00;;;;;;5072691;28;20028;-74
2021/06/24 02:48:13;;;;;;;28.95;21.20;;;563.70;2432.00;;;;;;5072894;28;20064;-71
2021/06/24 02:50:39;;;;;;;30.02;19.70;;;563.70;2432.00;;;;;;5072686;28;20020;-72
2021/06/24 02:53:05;;;;;;;29.40;17.45;;;563.70;2432.00;;;;;;5072587;28;20024;-73
2021/06/24 02:55:30;;;;;;;23.90;16.05;;;563.70;2432.00;;;;;;5072652;28;20027;-72
2021/06/24 02:57:58;;;;;;;23.52;14.25;;;563.70;2432.00;;;;;;5072433;28;20074;-71
2021/06/24 03:00:24;;;;;;;24.38;14.05;;;563.70;2432.00;;;;;;5072547;28;20059;-71
2021/06/24 03:02:50;;;;;;;26.00;12.68;;;563.60;2432.00;;;;;;5072646;28;20025;-71
2021/06/24 03:05:16;;;;;;;22.15;12.45;;;563.60;2432.00;;;;;;5072253;28;20067;-71
2021/06/24 03:07:41;;;;;;;24.00;13.52;;;563.70;2432.00;;;;;;5072744;28;20104;-71
2021/06/24 03:10:08;;;;;;;23.13;13.00;;;563.60;2432.00;;;;;;5072061;28;20032;-72
2021/06/24 03:12:35;;;;;;;22.70;12.07;;;563.50;2432.00;;;;;;5072471;28;20023;-71
2021/06/24 03:15:02;;;;;;;22.70;12.50;;;563.60;2432.00;;;;;;5072511;28;20028;-72
2021/06/24 03:17:28;;;;;;;21.35;12.32;;;563.70;2432.00;;;;;;5072471;28;20024;-72
2021/06/24 03:19:54;;;;;;;25.77;12.73;;;563.70;2432.00;;;;;;5054243;28;20074;-71
2021/06/24 03:22:20;;;;;;;25.63;12.55;;;563.80;2432.00;;;;;;5072568;28;20024;-72
2021/06/24 03:24:46;;;;;;;21.52;12.82;;;563.90;2432.00;;;;;;5070454;28;20502;-71
2021/06/24 03:27:12;;;;;;;24.02;12.48;;;563.90;2432.00;;;;;;5072136;28;20024;-71
2021/06/24 03:29:37;;;;;;;24.15;13.55;;;563.90;2432.00;;;;;;5072244;28;20032;-72
2021/06/24 03:32:04;;;;;;;26.35;14.20;;;564.00;2432.00;;;;;;5072181;28;20388;-72
2021/06/24 03:34:30;;;;;;;26.17;13.75;;;564.10;2432.00;;;;;;5072295;28;20390;-71
2021/06/24 03:36:55;;;;;;;21.95;13.43;;;564.10;2432.00;;;;;;5072026;28;20017;-72
2021/06/24 03:39:21;;;;;;;26.67;14.40;;;564.10;2432.00;;;;;;5072249;28;20052;-71
2021/06/24 03:41:47;;;;;;;26.63;14.02;;;564.10;2432.00;;;;;;5072417;28;20056;-71
2021/06/24 03:44:12;;;;;;;26.15;14.20;;;588.80;2432.00;;;;;;5072126;28;20506;-71
2021/06/24 03:46:38;;;;;;;23.38;13.93;;;588.80;2432.00;;;;;;5072123;28;20040;-73
2021/06/24 03:49:05;;;;;;;29.67;14.20;;;588.80;2432.00;;;;;;5075354;28;20035;-73
2021/06/24 03:51:31;;;;;;;25.05;13.73;;;589.00;2432.00;;;;;;5076151;28;20091;-71
2021/06/24 03:53:57;;;;;;;23.85;14.18;;;589.00;2432.00;;;;;;5075889;28;20490;-72
2021/06/24 03:56:23;;;;;;;31.02;14.60;;;589.10;2432.00;;;;;;5075723;28;20498;-72
2021/06/24 03:58:49;;;;;;;28.45;15.90;;;589.20;2432.00;;;;;;5076007;28;20028;-72
2021/06/24 04:01:15;;;;;;;32.80;17.05;;;589.20;2432.00;;;;;;5075994;28;20028;-72
2021/06/24 04:03:41;;;;;;;31.65;18.52;;;589.20;2432.00;;;;;;5076050;28;20051;-71
2021/06/24 04:06:07;;;;;;;31.75;19.00;;;589.20;2432.00;;;;;;5073174;28;20814;-71
2021/06/24 04:08:33;;;;;;;31.95;20.88;;;589.30;2432.00;;;;;;5075483;28;20482;-72
2021/06/24 04:10:59;;;;;;;31.63;21.63;;;589.10;2432.00;;;;;;5057911;28;20041;-72
2021/06/24 04:13:25;;;;;;;30.98;20.35;;;588.90;2432.00;;;;;;5075506;28;20033;-72
2021/06/24 04:15:51;;;;;;;36.33;20.42;;;564.10;2432.00;;;;;;5075848;28;20112;-73
2021/06/24 04:18:17;;;;;;;31.13;19.10;;;564.10;2432.00;;;;;;5075485;28;20527;-71
2021/06/24 04:20:42;;;;;;;30.55;19.60;;;589.00;2432.00;;;;;;5075691;28;20425;-71
2021/06/24 04:23:08;;;;;;;33.53;20.38;;;589.10;2432.00;;;;;;5075572;28;20027;-72
2021/06/24 04:25:34;;;;;;;28.10;20.80;;;589.20;2432.00;;;;;;5075216;28;20025;-72
2021/06/24 04:28:00;;;;;;;35.05;19.15;;;589.30;2432.00;;;;;;5075562;28;20028;-72
2021/06/24 04:30:27;;;;;;;28.17;17.90;;;589.50;2432.00;;;;;;5075289;28;20422;-72
2021/06/24 04:32:56;;;;;;;29.65;18.73;;;589.50;2432.00;;;;;;5075307;28;20025;-73
2021/06/24 04:35:22;;;;;;;27.50;17.75;;;589.50;2432.00;;;;;;5075087;28;20094;-71
2021/06/24 04:37:48;;;;;;;35.90;19.10;;;589.60;2432.00;;;;;;5075542;28;20032;-72
2021/06/24 04:40:14;;;;;;;25.75;17.70;;;614.40;2432.00;;;;;;5075182;28;20028;-72
2021/06/24 04:42:40;;;;;;;28.95;17.75;;;614.40;2432.00;;;;;;5075081;28;20036;-71
2021/06/24 04:45:08;;;;;;;27.77;16.95;;;614.60;2432.00;;;;;;5075163;28;20025;-71
2021/06/24 04:47:34;;;;;;;31.52;17.00;;;614.80;2432.00;;;;;;5075069;28;20497;-72
2021/06/24 04:50:00;;;;;;;30.70;17.00;;;614.90;2432.00;;;;;;5074990;28;20024;-72
2021/06/24 04:52:26;;;;;;;28.33;17.02;;;614.90;2432.00;;;;;;5074832;28;20029;-71
2021/06/24 04:54:52;;;;;;;32.25;16.58;;;615.10;2432.00;;;;;;5074999;28;20154;-74
2021/06/24 04:57:17;;;;;;;28.60;16.67;;;615.20;2432.00;;;;;;5074726;28;20483;-71
2021/06/24 04:59:43;;;;;;;34.55;17.63;;;615.20;2432.00;;;;;;5073378;28;20039;-73
2021/06/24 05:02:09;;;;;;;32.22;17.45;;;640.10;2432.00;;;;;;5074873;28;20506;-72
2021/06/24 05:04:35;;;;;;;31.70;17.98;;;640.40;2432.00;;;;;;5074805;28;20047;-72
2021/06/24 05:07:08;;;;;;;32.10;17.65;;;640.30;2432.00;;;;;;5060991;28;20025;-72
2021/06/24 05:09:39;;;;;;;30.63;17.52;;;640.50;2432.00;;;;;;5074439;28;20169;-76
2021/06/24 05:12:06;;;;;;;29.38;17.40;;;640.60;2432.00;;;;;;5074275;28;20414;-80
2021/06/24 05:14:31;;;;;;;26.45;16.92;;;640.60;2432.00;;;;;;5074595;28;20417;-82
2021/06/24 05:16:57;;;;;;;27.85;17.33;;;640.70;2432.00;;;;;;5074192;28;20050;-75
2021/06/24 05:19:23;;;;;;;28.10;17.05;;;640.80;2432.00;;;;;;5074484;28;20023;-72
2021/06/24 05:21:49;;;;;;;30.73;16.35;;;640.90;2432.00;;;;;;5074326;28;20483;-72
2021/06/24 05:24:15;;;;;;;30.10;15.85;;;665.60;2432.00;;;;;;5074632;28;20025;-73
2021/06/24 05:26:40;;;;;;;29.33;15.93;;;665.60;2432.00;;;;;;5074533;28;20039;-74
2021/06/24 05:29:06;;;;;;;25.13;15.77;;;665.60;2432.00;;;;;;5074289;28;20497;-72
2021/06/24 05:31:32;;;;;;;28.77;16.15;;;665.70;2432.00;;;;;;5074184;28;20095;-72
2021/06/24 05:33:58;;;;;;;36.08;16.75;;;665.90;2432.00;;;;;;5074226;28;20028;-72
2021/06/24 05:36:23;;;;;;;27.88;15.98;;;666.00;2432.00;;;;;;5074479;28;20459;-74
2021/06/24 05:38:49;;;;;;;29.52;15.95;;;666.20;2432.00;;;;;;5074008;28;20474;-73
2021/06/24 05:41:15;;;;;;;28.45;16.20;;;665.90;2432.00;;;;;;5074128;28;20020;-71
2021/06/24 05:43:41;;;;;;;27.70;15.88;;;666.30;2432.00;;;;;;5073926;28;20021;-72
2021/06/24 05:46:06;;;;;;;29.60;16.48;;;691.20;2432.00;;;;;;5074068;28;20052;-72
2021/06/24 05:48:33;;;;;;;25.55;14.57;;;691.40;2432.00;;;;;;5073756;28;20021;-73
2021/06/24 05:51:00;;;;;;;32.28;14.80;;;691.50;2432.00;;;;;;5073664;28;20538;-75
2021/06/24 05:53:25;;;;;;;26.10;14.35;;;691.40;2432.00;;;;;;5055891;28;20027;-73
2021/06/24 05:55:51;;;;;;;29.58;14.30;;;691.30;2432.00;;;;;;5072143;28;20020;-73
2021/06/24 05:58:23;;;;;;;28.65;13.55;;;691.60;2432.00;;;;;;5073776;28;20029;-72
2021/06/24 06:00:51;;;;;;;24.45;12.85;;;691.90;2432.00;;;;;;5073796;28;20100;-72
2021/06/24 06:03:18;;;;;;;24.42;12.38;;;717.00;2432.00;;;;;;5073506;28;20105;-75
2021/06/24 06:05:44;;;;;;;26.58;12.50;;;717.40;2432.00;;;;;;5073836;28;20037;-73
2021/06/24 06:08:10;;;;;;;22.85;13.00;;;717.70;2432.00;;;;;;5073573;28;20021;-74
2021/06/24 06:10:38;;;;;;;28.30;12.68;;;717.70;2432.00;;;;;;5073039;28;20049;-73
2021/06/24 06:13:05;;;;;;;29.55;12.90;;;742.60;2432.00;;;;;;5073412;28;20021;-72
2021/06/24 06:15:35;;;;;;;24.52;12.23;;;743.00;2432.00;;;;;;5073424;28;20474;-71
2021/06/24 06:18:08;;;;;;;21.88;12.07;;;743.30;2432.00;;;;;;5073232;28;20078;-73
2021/06/24 06:20:33;;;;;;;25.42;11.90;;;743.00;2432.00;;;;;;5073233;28;20103;-72
2021/06/24 06:22:59;;;;;;;24.60;12.60;;;742.90;2432.00;;;;;;5073241;28;20491;-71
2021/06/24 06:25:25;;;;;;;25.00;11.93;;;742.90;2432.00;;;;;;5072970;28;20017;-71
2021/06/24 06:27:51;;;;;;;21.58;11.75;;;742.60;2432.00;;;;;;5073087;28;20025;-73
2021/06/24 06:30:17;;;;;;;23.40;11.98;;;742.40;2432.00;;;;;;5072864;28;20020;-72
2021/06/24 06:32:43;;;;;;;25.60;11.95;;;742.40;2432.00;;;;;;5073348;28;20025;-72
2021/06/24 06:35:09;;;;;;;23.77;12.52;;;742.90;2432.00;;;;;;5072906;28;20040;-72
2021/06/24 06:37:35;;;;;;;27.20;12.55;;;743.10;2432.00;;;;;;5072892;28;20036;-72
2021/06/24 06:40:00;;;;;;;27.17;12.05;;;743.30;2432.00;;;;;;5072995;28;20024;-72
2021/06/24 06:42:26;;;;;;;23.83;12.35;;;768.50;2432.00;;;;;;5072711;28;20032;-72
2021/06/24 06:44:52;;;;;;;24.80;11.88;;;768.60;2432.00;;;;;;5073198;28;20032;-73
2021/06/24 06:47:18;;;;;;;22.35;12.23;;;793.70;2432.00;;;;;;5072641;28;20032;-72
2021/06/24 06:49:43;;;;;;;30.05;12.63;;;793.70;2432.00;;;;;;5072694;28;20390;-74
2021/06/24 06:52:09;;;;;;;30.88;11.73;;;793.70;2432.00;;;;;;5072706;28;20486;-72
2021/06/24 06:54:35;;;;;;;33.28;12.60;;;794.10;2432.00;;;;;;5072594;28;20032;-73
2021/06/24 06:57:01;;;;;;;24.27;12.20;;;794.20;2432.00;;;;;;5068709;28;20078;-73
2021/06/24 06:59:26;;;;;;;27.65;12.50;;;768.80;2432.00;;;;;;5066157;28;20047;-72
2021/06/24 07:01:52;;;;;;;21.63;11.95;;;768.80;2432.00;;;;;;5070427;28;20025;-73
2021/06/24 07:04:18;;;;;;;30.40;12.55;;;768.70;2432.00;;;;;;5072380;28;20423;-72
2021/06/24 07:06:43;;;;;;;30.20;13.00;;;768.60;2432.00;;;;;;5072332;28;20100;-73
2021/06/24 07:09:09;;;;;;;28.35;11.52;;;768.90;2432.00;;;;;;5072562;28;20063;-75
2021/06/24 07:11:35;;;;;;;24.55;11.63;;;768.90;2432.00;;;;;;5071293;28;20507;-72
2021/06/24 07:14:01;;;;;;;20.90;11.18;;;768.80;2432.00;;;;;;5052780;28;20021;-78
2021/06/24 07:16:26;;;;;;;24.35;11.15;;;793.70;2432.00;;;;;;5052718;28;20078;-73
2021/06/24 07:18:52;;;;;;;25.30;11.43;;;793.70;2432.00;;;;;;5052963;28;20040;-74
2021/06/24 07:21:18;;;;;;;27.25;11.27;;;793.90;2432.00;;;;;;5071204;28;20025;-74
2021/06/24 07:23:43;;;;;;;24.75;12.05;;;794.00;2432.00;;;;;;5070937;28;20035;-74
2021/06/24 07:26:09;;;;;;;24.25;11.60;;;793.80;2432.00;;;;;;5071873;28;20513;-74
2021/06/24 07:28:35;;;;;;;20.88;11.25;;;793.80;2432.00;;;;;;5054426;28;20053;-73
2021/06/24 07:31:01;;;;;;;23.83;11.27;;;793.80;2432.00;;;;;;5035471;28;20023;-78
2021/06/24 07:33:27;;;;;;;24.42;11.07;;;793.90;2432.00;;;;;;5072234;28;20036;-78
2021/06/24 07:35:53;;;;;;;25.38;11.40;;;794.20;2432.00;;;;;;5065938;28;20032;-72
2021/06/24 07:38:18;;;;;;;21.08;10.43;;;794.50;2432.00;;;;;;5067504;28;20034;-77
2021/06/24 07:40:44;;;;;;;23.88;10.52;;;819.20;2432.00;;;;;;5071725;28;20097;-78
2021/06/24 07:43:10;;;;;;;27.05;11.10;;;819.60;2432.00;;;;;;5071769;28;20500;-82
2021/06/24 07:45:37;;;;;;;23.25;9.75;;;819.90;2432.00;;;;;;5069417;28;20028;-79
2021/06/24 07:48:04;;;;;;;29.55;10.93;;;845.20;2432.00;;;;;;5069911;28;20386;-81
2021/06/24 07:50:32;;;;;;;29.23;10.65;;;844.90;2432.00;;;;;;5052410;28;20032;-74
2021/06/24 07:52:57;;;;;;;24.30;10.30;;;845.00;2432.00;;;;;;5051946;28;20021;-84
2021/06/24 07:55:32;;;;;;;21.88;10.13;;;844.90;2432.00;;;;;;5071428;28;20466;-73
2021/06/24 07:57:59;;;;;;;23.77;10.68;;;845.20;2432.00;;;;;;5067894;28;20024;-81
2021/06/24 08:00:25;;;;;;;22.60;9.60;;;845.10;2432.00;;;;;;5071007;28;20104;-81
2021/06/24 08:02:51;;;;;;;31.85;10.95;;;845.50;2432.00;;;;;;5071867;28;20078;-72
2021/06/24 08:05:18;;;;;;;31.88;11.05;;;845.20;2432.00;;;;;;5071442;28;20023;-77
2021/06/24 08:07:45;;;;;;;23.55;10.38;;;845.40;2432.00;;;;;;5054643;28;20036;-73
2021/06/24 08:10:12;;;;;;;31.33;10.02;;;845.20;2432.00;;;;;;5064624;28;20056;-80
2021/06/24 08:12:40;;;;;;;23.00;10.48;;;845.40;2432.00;;;;;;5071515;28;20033;-80
2021/06/24 08:15:07;;;;;;;22.60;10.43;;;845.60;2432.00;;;;;;5071572;28;20349;-80
2021/06/24 08:17:33;;;;;;;22.25;10.68;;;845.70;2432.00;;;;;;5071903;28;20499;-79
2021/06/24 08:19:59;;;;;;;22.00;10.40;;;870.50;2432.00;;;;;;5072048;28;20081;-79
2021/06/24 08:22:25;;;;;;;26.88;11.20;;;870.70;2432.00;;;;;;5071748;28;20021;-78
2021/06/24 08:24:51;;;;;;;22.38;10.30;;;845.70;2432.00;;;;;;5071553;28;20433;-77
2021/06/24 08:27:17;;;;;;;33.70;10.80;;;870.70;2432.00;;;;;;5067366;28;20032;-73
2021/06/24 08:29:43;;;;;;;21.48;10.48;;;871.00;2432.00;;;;;;5052236;28;20052;-79
2021/06/24 08:32:09;;;;;;;25.13;9.55;;;896.00;2432.00;;;;;;5062343;28;20537;-69
2021/06/24 08:34:34;;;;;;;25.52;9.73;;;871.20;2432.00;;;;;;5072537;28;20025;-81
2021/06/24 08:37:00;;;;;;;24.90;10.90;;;871.30;2432.00;;;;;;5069929;28;20442;-80
2021/06/24 08:39:26;;;;;;;34.28;10.88;;;871.10;2432.00;;;;;;5068141;28;20037;-81
2021/06/24 08:41:51;;;;;;;24.10;10.38;;;896.00;2432.00;;;;;;5074709;28;20021;-74
2021/06/24 08:44:20;;;;;;;21.20;9.35;;;896.90;2432.00;;;;;;5069553;28;20579;-75
2021/06/24 08:46:51;;;;;;;22.63;9.35;;;921.60;2432.00;;;;;;5066365;28;20032;-73
2021/06/24 08:49:23;;;;;;;23.50;9.35;;;921.90;2432.00;;;;;;5065847;28;20070;-73
2021/06/24 08:51:53;;;;;;;25.10;9.00;;;896.90;2432.00;;;;;;5061776;28;20029;-79
2021/06/24 08:54:19;;;;;;;23.58;9.43;;;896.80;2432.00;;;;;;5060622;28;20047;-73
2021/06/24 08:56:45;;;;;;;24.13;9.73;;;921.60;2432.00;;;;;;5069191;28;20416;-72
2021/06/24 08:59:11;;;;;;;21.30;9.05;;;896.90;2432.00;;;;;;5066463;28;20020;-72
2021/06/24 09:01:56;;;;;;;23.27;8.80;;;922.10;2432.00;;;;;;5073894;28;20525;-74
2021/06/24 09:04:24;;;;;;;23.02;9.30;;;947.20;2432.00;;;;;;5068445;28;20029;-76
2021/06/24 09:06:50;;;;;;;27.27;9.48;;;947.70;2432.00;;;;;;5065320;28;20108;-78
2021/06/24 09:09:36;;;;;;;25.70;9.18;;;922.30;2432.00;;;;;;5073720;28;20024;-74
2021/06/24 09:12:05;;;;;;;24.58;9.35;;;922.00;2432.00;;;;;;5073916;28;20513;-76
2021/06/24 09:14:50;;;;;;;24.30;9.32;;;922.40;2432.00;;;;;;5074664;28;20028;-74
2021/06/24 09:17:39;;;;;;;29.70;9.43;;;922.10;2432.00;;;;;;5069664;28;20023;-74
2021/06/24 09:20:27;;;;;;;27.87;9.60;;;896.90;2432.00;;;;;;5074189;28;20025;-73
2021/06/24 09:23:16;;;;;;;26.65;9.35;;;921.70;2432.00;;;;;;5073667;28;20487;-74
2021/06/24 09:25:48;;;;;;;21.50;9.35;;;896.90;2432.00;;;;;;5072055;28;20024;-78
2021/06/24 09:28:14;;;;;;;27.23;9.60;;;921.70;2432.00;;;;;;5073160;28;20036;-75
2021/06/24 09:30:45;;;;;;;27.85;9.07;;;922.10;2432.00;;;;;;5068470;28;20513;-75
2021/06/24 09:33:17;;;;;;;25.90;9.25;;;922.00;2432.00;;;;;;5054880;28;20083;-73
2021/06/24 09:35:53;;;;;;;21.70;9.38;;;922.50;2432.00;;;;;;5067622;28;20038;-77
2021/06/24 09:38:19;;;;;;;21.83;8.95;;;922.30;2432.00;;;;;;5070201;28;20017;-76
2021/06/24 09:40:49;;;;;;;24.60;9.02;;;922.20;2432.00;;;;;;5071928;28;20200;-76
2021/06/24 09:43:35;;;;;;;20.42;8.40;;;922.50;2432.00;;;;;;5069930;28;20021;-74
2021/06/24 09:46:07;;;;;;;21.65;9.23;;;922.30;2432.00;;;;;;5071774;28;20017;-73
2021/06/24 09:48:43;;;;;;;23.30;8.57;;;922.00;2432.00;;;;;;5073826;28;20086;-76
2021/06/24 09:51:17;;;;;;;24.00;9.15;;;922.50;2432.00;;;;;;5071371;28;20025;-75
2021/06/24 09:53:59;;;;;;;24.63;9.27;;;947.70;2432.00;;;;;;5073132;28;20024;-73
2021/06/24 09:56:33;;;;;;;27.10;8.98;;;;;;;;;;5070220;28;20025;-72
2021/06/24 09:59:05;;;;;;;20.70;8.95;;;947.60;2432.00;;;;;;5070589;28;20478;-77
2021/06/24 10:01:42;;;;;;;25.40;8.48;;;922.50;2432.00;;;;;;5055404;28;20031;-76
2021/06/24 10:04:24;;;;;;;24.10;8.60;;;947.70;2432.00;;;;;;5055748;28;20040;-75
2021/06/24 10:06:52;;;;;;;22.15;8.25;;;948.10;2406.40;;;;;;5058297;28;20032;-75
2021/06/24 10:09:18;;;;;;;31.23;9.32;;;948.10;2380.80;;;;;;5064493;28;20119;-75
2021/06/24 10:11:45;;;;;;;24.73;8.95;;;;;;;;;;5062372;28;20375;-74
2021/06/24 10:14:12;;;;;;;23.27;8.40;;;948.10;2380.80;;;;;;5054799;28;20474;-76
2021/06/24 10:16:38;;;;;;;24.63;8.77;;;;;;;;;;5055384;28;20398;-72
2021/06/24 10:19:05;;;;;;;26.65;8.70;;;973.20;2380.80;;;;;;5073034;28;20048;-72
2021/06/24 10:21:34;;;;;;;20.05;8.77;;;973.30;2355.20;;;;;;5071910;28;20064;-73
2021/06/24 10:24:11;;;;;;;22.75;8.48;;;973.40;2355.20;;;;;;5069549;28;20028;-72
2021/06/24 10:26:40;;;;;;;21.88;9.10;;;973.30;2329.60;;;;;;5072474;28;20025;-73
2021/06/24 10:29:12;;;;;;;22.33;8.63;;;;;;;;;;5072974;28;20020;-73
2021/06/24 10:31:39;;;;;;;28.85;9.10;;;;;;;;;;5068406;28;20395;-73
2021/06/24 10:34:04;;;;;;;26.05;8.95;;;973.60;2278.40;;;;;;5065010;28;20024;-76
2021/06/24 10:36:32;;;;;;;27.60;8.55;;;973.70;2227.20;;;;;;5066104;28;20035;-73
2021/06/24 10:38:59;;;;;;;21.27;8.45;;;973.70;2227.20;;;;;;5067505;28;20547;-72
2021/06/24 10:41:25;;;;;;;26.65;8.48;;;972.90;2252.80;;;;;;5062617;28;20037;-74
2021/06/24 10:43:53;;;;;;;20.92;8.38;;;948.10;2201.60;;;;;;5060540;28;20029;-78
2021/06/24 10:46:21;;;;;;;23.38;8.48;;;973.20;2201.60;;;;;;5062543;28;20024;-72
2021/06/24 10:48:47;;;;;;;21.80;8.55;;;973.40;2176.00;;;;;;5062327;28;20029;-73
2021/06/24 10:51:15;;;;;;;23.83;8.57;;;973.20;2227.20;;;;;;5072058;28;20030;-72
2021/06/24 10:53:48;;;;;;;23.05;8.20;;;973.00;2227.20;;;;;;5072871;28;20021;-72
2021/06/24 10:56:27;;;;;;;26.73;8.50;;;973.60;2150.40;;;;;;5069566;28;20037;-71
2021/06/24 10:58:53;;;;;;;26.00;8.23;;;973.20;2176.00;;;;;;5070953;28;20029;-76
2021/06/24 11:01:43;;;;;;;24.77;7.75;;;973.20;2124.80;;;;;;5072713;28;20020;-76
2021/06/24 11:04:27;;;;;;;21.33;7.32;;;973.20;2022.40;;;;;;5072822;28;20112;-73
2021/06/24 11:06:53;;;;;;;27.00;7.63;;;972.90;1996.80;;;;;;5072564;28;20499;-74
2021/06/24 11:09:20;;;;;;;23.33;7.18;;;973.00;2022.40;;;;;;5072322;28;20056;-76
2021/06/24 11:11:46;;;;;;;21.40;8.00;;;973.00;1971.20;;;;;;5072462;28;20072;-76
2021/06/24 11:14:18;;;;;;;22.52;7.65;;;973.20;2048.00;;;;;;5066127;28;20122;-75
2021/06/24 11:16:44;;;;;;;24.90;8.13;;;973.00;1996.80;;;;;;5072468;28;20087;-76
2021/06/24 11:19:14;;;;;;;22.23;8.60;;;973.20;2048.00;;;;;;5071944;28;20020;-75
2021/06/24 11:21:39;;;;;;;19.63;7.30;;;973.20;2022.40;;;;;;5071699;28;20025;-76
2021/06/24 11:24:05;;;;;;;25.35;7.38;;;973.30;1971.20;;;;;;5070408;28;20026;-75
2021/06/24 11:26:35;;;;;;;28.83;7.78;;;973.30;1971.20;;;;;;5071632;28;20032;-74
2021/06/24 11:34:49;;;;;;;24.88;7.47;;;973.60;1971.20;;;;;;5071850;28;20082;-74
2021/06/24 11:37:22;;;;;;;22.55;7.70;;;973.60;1945.60;;;;;;5071459;28;20025;-76
2021/06/24 11:40:08;;;;;;;27.77;7.63;;;998.50;1920.00;;;;;;5072003;28;20032;-76
2021/06/24 11:42:42;;;;;;;23.50;8.10;;;998.70;1920.00;;;;;;5071712;28;20032;-77
2021/06/24 11:45:11;;;;;;;27.70;8.32;;;998.80;1920.00;;;;;;5071940;28;20028;-78
2021/06/24 11:47:38;;;;;;;22.90;7.63;;;998.90;1920.00;;;;;;5042457;28;20094;-80
2021/06/24 12:04:04;;;;;;;21.55;7.60;;;973.60;1894.40;;;;;;5070542;28;20031;-81
2021/06/24 12:06:50;;;;;;;26.00;7.50;;;973.40;1920.00;;;;;;5071203;28;20052;-74
2021/06/24 12:09:21;;;;;;;28.35;7.47;;;973.10;1894.40;;;;;;5073551;28;20020;-78
2021/06/24 12:11:58;;;;;;;24.25;8.10;;;973.20;1920.00;;;;;;5074469;28;20044;-81
2021/06/24 12:14:29;;;;;;;24.83;7.60;;;973.30;1920.00;;;;;;5075223;28;20020;-80
2021/06/24 12:17:07;;;;;;;23.52;7.00;;;973.10;1920.00;;;;;;5074957;28;20048;-75
2021/06/24 12:19:59;;;;;;;25.00;7.38;;;973.50;1894.40;;;;;;5075269;28;20482;-74
2021/06/24 12:22:33;;;;;;;22.70;7.55;;;973.60;1920.00;;;;;;5056986;28;20075;-76
2021/06/24 12:25:00;;;;;;;28.85;8.05;;;998.50;1920.00;;;;;;5065995;28;20039;-75
2021/06/24 12:27:38;;;;;;;24.58;7.57;;;973.70;1894.40;;;;;;5074625;28;20635;-75